Terminal Aerodrome Forecast
Issued by NWS

Home | Current Version | Previous Version | Text Only | Print | Product List | Glossary On
Versions: 1 2 3 4 5 6 7 8 9 10 11 12 13
000
FTUS44 KLIX 171100
TAFMCB
TAF
KMCB 171136Z 1712/1812 00000KT P6SM SCT035
      TEMPO 1712/1714 3SM BR
     FM171800 VRB03KT P6SM SCT035
     FM180000 00000KT P6SM BKN035=

USA.gov is the U.S. government's official web portal to all federal, state and local government web resources and services.